Herrick, Vermont
Current Conditions -  °F | °C
As of 12:35 PM on Monday 22 Dec 2014 (Local Time) from KFSO Reporting Station
Haze Haze  
Wind Chill: 20°   Ceiling: 3500
Heat Index: 20°   Visibility: 4mi
Dew Point: 17°   Wind: 0mph
Humidity: 89%   Direction: NA
Pressure: 30.35"   Gusts: NA
Location:  44.8764°N, 72.758°W
Report Text: KFSO 221735Z AUTO 00000KT 4SM BR SCT004 OVC035 M07/M08 A3035 RMK AO2 T10681083
Loading
Personal Weather Stations






























Interactive Weather Map New forecast layout! Learn more

10-Day Weather Forecast

Advertisements
Track Severe Weather on mobile